Time;durP1;ratioP1;P1;durP2;ratioP2;P2;SDS_P1;SDS_P2;PMS_P1;PMS_P2;Temp;Humidity;BMP_temperature;BMP_pressure;BME280_temperature;BME280_humidity;BME280_pressure;Samples;Min_cycle;Max_cycle;Signal;HPM_P1;HPM_P2
2022/01/31 00:00:53;;;;;;;13.90;4.07;;;;;;;;;;5016941;28;20033;-65
2022/01/31 00:03:26;;;;;;;17.05;4.55;;;;;;;;;;5030173;28;20049;-65
2022/01/31 00:05:52;;;;;;;16.02;4.15;;;;;;;;;;5028062;28;20029;-66
2022/01/31 00:08:23;;;;;;;16.70;4.78;;;;;;;;;;5018259;28;20116;-65
2022/01/31 00:10:50;;;;;;;15.93;4.65;;;;;;;;;;5035360;28;20040;-65
2022/01/31 00:13:23;;;;;;;12.45;4.00;;;;;;;;;;5020747;28;20033;-65
2022/01/31 00:15:54;;;;;;;8.45;3.20;;;;;;;;;;5033441;28;20033;-65
2022/01/31 00:18:19;;;;;;;;;;;;;;;;;;5053995;28;20363;-65
2022/01/31 00:20:45;;;;;;;12.77;3.70;;;;;;;;;;5049637;28;20409;-65
2022/01/31 00:23:10;;;;;;;11.32;3.30;;;;;;;;;;5022358;28;20052;-65
2022/01/31 00:25:36;;;;;;;9.95;3.40;;;;;;;;;;5050268;28;20031;-65
2022/01/31 00:28:01;;;;;;;7.93;2.72;;;;;;;;;;5032073;28;20025;-66
2022/01/31 00:30:27;;;;;;;13.50;3.85;;;;;;;;;;5030458;28;20438;-65
2022/01/31 00:32:52;;;;;;;8.32;2.90;;;;;;;;;;5031798;28;20029;-65
2022/01/31 00:35:18;;;;;;;11.10;3.30;;;;;;;;;;5047380;28;20050;-65
2022/01/31 00:37:43;;;;;;;10.68;3.75;;;;;;;;;;5022808;28;20029;-65
2022/01/31 00:40:09;;;;;;;7.88;3.83;;;;;;;;;;5034773;28;20033;-65
2022/01/31 00:42:35;;;;;;;7.97;2.90;;;;;;;;;;5033866;28;20029;-66
2022/01/31 00:45:12;;;;;;;15.65;3.97;;;;;;;;;;5037262;28;20463;-66
2022/01/31 00:47:43;;;;;;;14.52;3.50;;;;;;;;;;5015461;28;20039;-66
2022/01/31 00:50:11;;;;;;;14.88;3.53;;;;;;;;;;5047773;28;20044;-66
2022/01/31 00:52:38;;;;;;;6.43;2.65;;;;;;;;;;5039888;28;20037;-66
2022/01/31 00:55:05;;;;;;;8.43;2.90;;;;;;;;;;5031264;28;20025;-66
2022/01/31 00:57:31;;;;;;;11.85;3.17;;;;;;;;;;5006269;28;20045;-66
2022/01/31 00:59:59;;;;;;;9.43;2.75;;;;;;;;;;5052653;28;20040;-66
2022/01/31 01:02:26;;;;;;;15.32;4.38;;;;;;;;;;5028490;28;20018;-65
2022/01/31 01:04:52;;;;;;;9.75;3.00;;;;;;;;;;5053611;28;20368;-66
2022/01/31 01:07:19;;;;;;;11.05;2.72;;;;;;;;;;5024276;28;20029;-66
2022/01/31 01:09:46;;;;;;;10.52;2.70;;;;;;;;;;5022599;28;20033;-65
2022/01/31 01:12:13;;;;;;;7.85;2.53;;;;;;;;;;5044228;28;20032;-66
2022/01/31 01:14:39;;;;;;;12.15;3.20;;;;;;;;;;5017044;28;20638;-65
2022/01/31 01:17:05;;;;;;;7.15;2.88;;;;;;;;;;5019834;28;20123;-66
2022/01/31 01:19:30;;;;;;;8.05;2.72;;;;;;;;;;5024281;28;20030;-67
2022/01/31 01:21:56;;;;;;;9.65;2.88;;;;;;;;;;5029489;28;20438;-65
2022/01/31 01:24:21;;;;;;;12.13;3.30;;;;;;;;;;5024694;28;20042;-66
2022/01/31 01:26:48;;;;;;;13.10;3.40;;;;;;;;;;5020498;28;20041;-66
2022/01/31 01:29:14;;;;;;;7.75;3.83;;;;;;;;;;5037372;28;20101;-66
2022/01/31 01:31:39;;;;;;;9.07;3.10;;;;;;;;;;5024883;28;20113;-66
2022/01/31 01:34:05;;;;;;;11.57;3.60;;;;;;;;;;5015858;28;20116;-66
2022/01/31 01:36:34;;;;;;;9.75;3.90;;;;;;;;;;5022371;28;20111;-66
2022/01/31 01:39:00;;;;;;;10.52;2.95;;;;;;;;;;5021755;28;20174;-66
2022/01/31 01:41:26;;;;;;;11.95;3.45;;;;;;;;;;5016425;28;20254;-66
2022/01/31 01:43:51;;;;;;;18.20;3.70;;;;;;;;;;5027165;28;20130;-66
2022/01/31 01:46:17;;;;;;;13.23;3.90;;;;;;;;;;5045991;28;20605;-66
2022/01/31 01:48:42;;;;;;;8.43;2.22;;;;;;;;;;5026974;28;20446;-66
2022/01/31 01:51:08;;;;;;;7.53;2.55;;;;;;;;;;5030810;28;20467;-66
2022/01/31 01:53:33;;;;;;;14.20;3.92;;;;;;;;;;5027695;28;20036;-66
2022/01/31 01:56:00;;;;;;;12.93;3.50;;;;;;;;;;5031638;28;20399;-66
2022/01/31 01:58:30;;;;;;;9.80;2.72;;;;;;;;;;5011388;28;20052;-66
2022/01/31 02:01:02;;;;;;;11.50;3.60;;;;;;;;;;5020844;28;20029;-66
2022/01/31 02:03:29;;;;;;;7.75;2.40;;;;;;;;;;5030649;28;20659;-66
2022/01/31 02:05:58;;;;;;;11.80;2.83;;;;;;;;;;5029297;28;20029;-66
2022/01/31 02:08:25;;;;;;;8.80;3.13;;;;;;;;;;5028107;28;20033;-66
2022/01/31 02:10:51;;;;;;;9.82;3.08;;;;;;;;;;5035278;28;20108;-65
2022/01/31 02:13:20;;;;;;;9.35;3.30;;;;;;;;;;5036534;28;20124;-64
2022/01/31 02:15:49;;;;;;;11.48;3.10;;;;;;;;;;5021223;28;20124;-66
2022/01/31 02:18:16;;;;;;;8.57;2.90;;;;;;;;;;5023600;28;20048;-66
2022/01/31 02:20:42;;;;;;;12.55;3.38;;;;;;;;;;5025367;28;20033;-66
2022/01/31 02:23:14;;;;;;;14.23;4.03;;;;;;;;;;5036757;28;20489;-66
2022/01/31 02:26:03;;;;;;;12.93;4.35;;;;;;;;;;5014385;28;20121;-66
2022/01/31 02:28:34;;;;;;;14.48;3.75;;;;;;;;;;5021089;28;20030;-66
2022/01/31 02:31:00;;;;;;;;;;;;;;;;;;5026930;28;20124;-66
2022/01/31 02:33:27;;;;;;;11.68;3.17;;;;;;;;;;5025460;28;20339;-65
2022/01/31 02:35:58;;;;;;;6.75;2.58;;;;;;;;;;5040904;28;20104;-65
2022/01/31 02:38:24;;;;;;;12.80;3.67;;;;;;;;;;5020765;28;20112;-66
2022/01/31 02:40:50;;;;;;;9.85;3.40;;;;;;;;;;5043912;28;20033;-66
2022/01/31 02:43:31;;;;;;;16.00;3.95;;;;;;;;;;5028485;28;20083;-67
2022/01/31 02:45:57;;;;;;;7.78;2.95;;;;;;;;;;5026938;28;20033;-66
2022/01/31 02:48:25;;;;;;;9.82;3.83;;;;;;;;;;5025839;28;20117;-66
2022/01/31 02:50:52;;;;;;;19.40;4.25;;;;;;;;;;5042154;28;20494;-67
2022/01/31 02:53:40;;;;;;;12.32;3.45;;;;;;;;;;5019731;28;20092;-67
2022/01/31 02:56:06;;;;;;;12.68;4.07;;;;;;;;;;5019029;28;20472;-67
2022/01/31 02:58:31;;;;;;;16.05;4.28;;;;;;;;;;5020075;28;20029;-67
2022/01/31 03:00:58;;;;;;;11.85;4.05;;;;;;;;;;5021179;28;20041;-67
2022/01/31 03:03:24;;;;;;;15.18;4.80;;;;;;;;;;5017462;28;20061;-67
2022/01/31 03:05:49;;;;;;;12.63;4.60;;;;;;;;;;5026797;28;20065;-67
2022/01/31 03:08:15;;;;;;;14.13;4.03;;;;;;;;;;5027674;28;20108;-67
2022/01/31 03:10:40;;;;;;;10.27;3.58;;;;;;;;;;5034670;28;20022;-67
2022/01/31 03:13:06;;;;;;;6.90;2.80;;;;;;;;;;5032579;28;20025;-67
2022/01/31 03:15:32;;;;;;;17.52;5.50;;;;;;;;;;5026708;28;20075;-67
2022/01/31 03:17:58;;;;;;;8.85;3.67;;;;;;;;;;5032877;28;20068;-67
2022/01/31 03:20:24;;;;;;;8.05;3.85;;;;;;;;;;5033289;28;20052;-67
2022/01/31 03:22:50;;;;;;;14.80;3.60;;;;;;;;;;5027131;28;20480;-68
2022/01/31 03:25:17;;;;;;;7.32;3.45;;;;;;;;;;5017973;28;20067;-68
2022/01/31 03:27:43;;;;;;;11.60;4.57;;;;;;;;;;5023663;28;20056;-67
2022/01/31 03:30:13;;;;;;;8.75;4.15;;;;;;;;;;5021566;28;20114;-68
2022/01/31 03:32:38;;;;;;;13.48;4.63;;;;;;;;;;5019185;28;20034;-67
2022/01/31 03:35:05;;;;;;;19.25;4.45;;;;;;;;;;5027673;28;20041;-67
2022/01/31 03:37:31;;;;;;;10.23;3.85;;;;;;;;;;5015865;28;20101;-67
2022/01/31 03:39:56;;;;;;;7.65;4.38;;;;;;;;;;5042862;28;20040;-67
2022/01/31 03:42:22;;;;;;;12.18;5.20;;;;;;;;;;5031628;28;20037;-68
2022/01/31 03:44:51;;;;;;;14.73;5.55;;;;;;;;;;5024629;28;20045;-68
2022/01/31 03:47:17;;;;;;;16.25;6.00;;;;;;;;;;5016474;28;20467;-67
2022/01/31 03:49:43;;;;;;;14.60;5.93;;;;;;;;;;5018003;28;20048;-66
2022/01/31 03:52:08;;;;;;;9.18;4.72;;;;;;;;;;5021408;28;20034;-67
2022/01/31 03:54:34;;;;;;;13.02;5.55;;;;;;;;;;5032875;28;20063;-67
2022/01/31 03:56:59;;;;;;;15.93;7.35;;;;;;;;;;5015785;28;20076;-67
2022/01/31 03:59:24;;;;;;;8.77;4.65;;;;;;;;;;5012976;28;20430;-68
2022/01/31 04:01:50;;;;;;;13.57;4.95;;;;;;;;;;5042978;28;20030;-67
2022/01/31 04:04:15;;;;;;;12.38;5.05;;;;;;;;;;5028774;28;20037;-68
2022/01/31 04:06:41;;;;;;;10.35;4.85;;;;;;;;;;5036497;28;20080;-68
2022/01/31 04:09:07;;;;;;;11.25;6.05;;;;;;;;;;5025868;28;20041;-68
2022/01/31 04:11:33;;;;;;;10.80;5.10;;;;;;;;;;5043432;28;20029;-68
2022/01/31 04:13:59;;;;;;;16.35;7.03;;;;;;;;;;5019281;28;20037;-67
2022/01/31 04:16:25;;;;;;;14.63;6.80;;;;;;;;;;5029941;28;20087;-67
2022/01/31 04:18:53;;;;;;;11.23;6.03;;;;;;;;;;5027690;28;20458;-68
2022/01/31 04:21:18;;;;;;;14.20;6.88;;;;;;;;;;5024284;28;20466;-68
2022/01/31 04:23:46;;;;;;;9.43;4.78;;;;;;;;;;5024713;28;20025;-68
2022/01/31 04:26:14;;;;;;;15.85;6.70;;;;;;;;;;5023727;28;20171;-67
2022/01/31 04:28:45;;;;;;;14.43;7.10;;;;;;;;;;5031233;28;20034;-67
2022/01/31 04:31:26;;;;;;;13.23;5.50;;;;;;;;;;5027135;28;20100;-68
2022/01/31 04:33:53;;;;;;;11.30;6.35;;;;;;;;;;5027936;28;20108;-67
2022/01/31 04:36:19;;;;;;;12.23;6.57;;;;;;;;;;5025612;28;20072;-67
2022/01/31 04:38:46;;;;;;;12.32;6.53;;;;;;;;;;5026054;28;20056;-68
2022/01/31 04:41:12;;;;;;;15.73;6.43;;;;;;;;;;5033786;28;20033;-68
2022/01/31 04:43:37;;;;;;;14.90;6.13;;;;;;;;;;5031827;28;20094;-67
2022/01/31 04:46:05;;;;;;;12.13;5.25;;;;;;;;;;5032641;28;20064;-67
2022/01/31 04:48:31;;;;;;;17.85;8.98;;;;;;;;;;5021220;28;20456;-68
2022/01/31 04:51:00;;;;;;;16.08;8.15;;;;;;;;;;5031568;28;20029;-67
2022/01/31 04:53:25;;;;;;;14.13;5.70;;;;;;;;;;5022414;28;20033;-67
2022/01/31 04:55:51;;;;;;;14.20;6.57;;;;;;;;;;5048552;28;20037;-67
2022/01/31 04:58:17;;;;;;;10.93;6.18;;;;;;;;;;5027988;28;20084;-67
2022/01/31 05:00:43;;;;;;;13.52;6.72;;;;;;;;;;5022128;28;20045;-67
2022/01/31 05:03:14;;;;;;;15.13;5.07;;;;;;;;;;5023038;28;20028;-67
2022/01/31 05:05:41;;;;;;;7.60;4.43;;;;;;;;;;5044695;28;20108;-67
2022/01/31 05:08:07;;;;;;;14.85;5.10;;;;;;;;;;5026711;28;20455;-68
2022/01/31 05:10:34;;;;;;;13.48;5.68;;;;;;;;;;5022537;28;20033;-68
2022/01/31 05:13:00;;;;;;;17.23;6.28;;;;;;;;;;5032460;28;20045;-67
2022/01/31 05:15:25;;;;;;;11.13;4.90;;;;;;;;;;5030883;28;20017;-67
2022/01/31 05:17:54;;;;;;;13.15;5.28;;;;;;;;;;5037087;28;20380;-67
2022/01/31 05:20:19;;;;;;;9.45;4.10;;;;;;;;;;5029021;28;20044;-67
2022/01/31 05:22:47;;;;;;;13.85;5.75;;;;;;;;;;5029574;28;20033;-67
2022/01/31 05:25:13;;;;;;;9.32;4.75;;;;;;;;;;5050328;28;20048;-67
2022/01/31 05:27:38;;;;;;;18.83;6.35;;;;;;;;;;5051610;28;20029;-67
2022/01/31 05:30:04;;;;;;;18.67;6.55;;;;;;;;;;5040858;28;20095;-67
2022/01/31 05:32:30;;;;;;;14.25;7.00;;;;;;;;;;5047190;28;20033;-67
2022/01/31 05:34:55;;;;;;;17.52;6.35;;;;;;;;;;5034673;28;20033;-67
2022/01/31 05:37:21;;;;;;;10.80;5.28;;;;;;;;;;5039574;28;20055;-67
2022/01/31 05:39:46;;;;;;;18.23;5.80;;;;;;;;;;5031342;28;21605;-67
2022/01/31 05:42:13;;;;;;;12.32;5.47;;;;;;;;;;5050728;28;20032;-68
2022/01/31 05:44:38;;;;;;;14.43;4.50;;;;;;;;;;5050447;28;20441;-67
2022/01/31 05:47:04;;;;;;;7.85;3.17;;;;;;;;;;5050909;28;20028;-68
2022/01/31 05:49:30;;;;;;;14.63;3.97;;;;;;;;;;5039560;28;20144;-68
2022/01/31 05:52:04;;;;;;;16.05;4.88;;;;;;;;;;5049306;28;20082;-68
2022/01/31 05:54:30;;;;;;;13.50;4.38;;;;;;;;;;5037558;28;20026;-65
2022/01/31 05:56:56;;;;;;;14.85;5.38;;;;;;;;;;5035359;28;20059;-65
2022/01/31 05:59:22;;;;;;;10.00;4.07;;;;;;;;;;5049226;28;20114;-66
2022/01/31 06:01:47;;;;;;;12.40;3.95;;;;;;;;;;5035909;28;20513;-66
2022/01/31 06:04:13;;;;;;;7.95;3.17;;;;;;;;;;5052470;28;20040;-68
2022/01/31 06:06:38;;;;;;;10.00;3.08;;;;;;;;;;5033651;28;20044;-67
2022/01/31 06:09:04;;;;;;;7.20;2.45;;;;;;;;;;5032966;28;20095;-67
2022/01/31 06:11:31;;;;;;;15.93;3.88;;;;;;;;;;5029194;28;20025;-70
2022/01/31 06:13:59;;;;;;;14.30;3.97;;;;;;;;;;5036101;28;20032;-71
2022/01/31 06:16:25;;;;;;;5.03;2.50;;;;;;;;;;5051020;28;20047;-68
2022/01/31 06:18:50;;;;;;;12.70;2.33;;;;;;;;;;5045409;28;20037;-66
2022/01/31 06:21:15;;;;;;;9.75;2.75;;;;;;;;;;5034178;28;20437;-66
2022/01/31 06:23:41;;;;;;;15.77;2.65;;;;;;;;;;5031066;28;20036;-66
2022/01/31 06:26:07;;;;;;;10.52;2.45;;;;;;;;;;5032122;28;20587;-68
2022/01/31 06:28:32;;;;;;;10.82;2.35;;;;;;;;;;5038394;28;20029;-70
2022/01/31 06:30:58;;;;;;;14.98;2.85;;;;;;;;;;5033889;28;20032;-69
2022/01/31 06:33:24;;;;;;;8.27;2.22;;;;;;;;;;5034680;28;20103;-65
2022/01/31 06:35:50;;;;;;;14.00;2.88;;;;;;;;;;5031283;28;20109;-69
2022/01/31 06:38:15;;;;;;;12.38;3.70;;;;;;;;;;5030359;28;20454;-69
2022/01/31 06:40:41;;;;;;;9.68;2.88;;;;;;;;;;5036367;28;20025;-69
2022/01/31 06:43:06;;;;;;;11.15;2.88;;;;;;;;;;5049651;28;20037;-69
2022/01/31 06:45:32;;;;;;;6.95;2.50;;;;;;;;;;5050128;28;20033;-68
2022/01/31 06:47:57;;;;;;;13.85;2.75;;;;;;;;;;5041188;28;20471;-71
2022/01/31 06:50:23;;;;;;;4.60;2.33;;;;;;;;;;5050799;28;20106;-66
2022/01/31 06:52:53;;;;;;;6.90;2.08;;;;;;;;;;5039632;28;20375;-67
2022/01/31 06:55:20;;;;;;;14.07;3.25;;;;;;;;;;5036301;28;20112;-67
2022/01/31 06:57:46;;;;;;;12.27;2.60;;;;;;;;;;5045503;28;20022;-64
2022/01/31 07:00:13;;;;;;;9.20;2.83;;;;;;;;;;5031677;28;20038;-64
2022/01/31 07:02:38;;;;;;;8.18;2.40;;;;;;;;;;5031812;28;20080;-65
2022/01/31 07:05:05;;;;;;;10.02;2.47;;;;;;;;;;5030284;28;20038;-65
2022/01/31 07:07:30;;;;;;;4.90;2.92;;;;;;;;;;5050191;28;20024;-64
2022/01/31 07:09:56;;;;;;;7.03;1.90;;;;;;;;;;5030454;28;20035;-64
2022/01/31 07:12:31;;;;;;;10.77;3.10;;;;;;;;;;5050741;28;20037;-67
2022/01/31 07:14:57;;;;;;;6.38;2.88;;;;;;;;;;5031505;28;20026;-66
2022/01/31 07:17:22;;;;;;;6.80;2.15;;;;;;;;;;5037595;28;20040;-69
2022/01/31 07:19:48;;;;;;;2.25;1.42;;;;;;;;;;5033041;28;20384;-67
2022/01/31 07:22:14;;;;;;;3.88;2.05;;;;;;;;;;5030205;28;20328;-65
2022/01/31 07:25:01;;;;;;;8.57;2.00;;;;;;;;;;5034739;28;20108;-66
2022/01/31 07:27:27;;;;;;;6.68;1.65;;;;;;;;;;5039650;28;20033;-68
2022/01/31 07:29:52;;;;;;;2.53;1.27;;;;;;;;;;5046759;28;20033;-69
2022/01/31 07:32:19;;;;;;;4.15;1.25;;;;;;;;;;5050914;28;20401;-71
2022/01/31 07:34:46;;;;;;;4.10;1.58;;;;;;;;;;5041776;28;20155;-68
2022/01/31 07:37:12;;;;;;;4.25;1.60;;;;;;;;;;5031381;28;20025;-66
2022/01/31 07:39:42;;;;;;;4.45;1.27;;;;;;;;;;5030430;28;20545;-68
2022/01/31 07:42:09;;;;;;;2.45;1.25;;;;;;;;;;5032462;28;20037;-70
2022/01/31 07:44:34;;;;;;;4.05;1.65;;;;;;;;;;5040441;28;20045;-65
2022/01/31 07:47:03;;;;;;;5.35;2.25;;;;;;;;;;5034551;28;20105;-69
2022/01/31 07:49:29;;;;;;;4.95;2.30;;;;;;;;;;5047139;28;20036;-68
2022/01/31 07:51:56;;;;;;;8.88;3.80;;;;;;;;;;5041597;28;20036;-70
2022/01/31 07:54:22;;;;;;;4.68;2.40;;;;;;;;;;5033354;28;20033;-70
2022/01/31 07:56:47;;;;;;;8.95;3.60;;;;;;;;;;5034858;28;20091;-71
2022/01/31 07:59:16;;;;;;;6.47;3.38;;;;;;;;;;5040520;28;20037;-70
2022/01/31 08:01:41;;;;;;;4.38;2.45;;;;;;;;;;5043306;28;20021;-70
2022/01/31 08:04:07;;;;;;;6.40;2.90;;;;;;;;;;5053209;28;20130;-71
2022/01/31 08:06:34;;;;;;;4.80;2.53;;;;;;;;;;5044553;28;20029;-68
2022/01/31 08:08:59;;;;;;;10.90;3.70;;;;;;;;;;5026280;28;20034;-66
2022/01/31 08:11:30;;;;;;;7.63;2.40;;;;;;;;;;5038890;28;20036;-69
2022/01/31 08:14:00;;;;;;;5.90;2.63;;;;;;;;;;5034717;28;20387;-70
2022/01/31 08:16:26;;;;;;;5.03;2.70;;;;;;;;;;5034902;28;20472;-69
2022/01/31 08:18:52;;;;;;;5.03;2.28;;;;;;;;;;5046878;28;20040;-68
2022/01/31 08:21:20;;;;;;;9.27;2.78;;;;;;;;;;5052676;28;20514;-71
2022/01/31 08:23:45;;;;;;;4.85;2.10;;;;;;;;;;5042802;28;20084;-69
2022/01/31 08:26:15;;;;;;;10.07;2.90;;;;;;;;;;5039092;28;20033;-72
2022/01/31 08:28:44;;;;;;;5.43;2.47;;;;;;;;;;5032008;28;20033;-69
2022/01/31 08:31:17;;;;;;;6.78;2.20;;;;;;;;;;5046853;28;20021;-69
2022/01/31 08:36:34;;;;;;;12.82;2.83;;;;;;;;;;5040741;28;20101;-69
2022/01/31 08:39:08;;;;;;;5.28;2.28;;;;;;;;;;5049950;28;20044;-69
2022/01/31 08:41:37;;;;;;;9.05;2.70;;;;;;;;;;5057121;28;20364;-68
2022/01/31 08:44:06;;;;;;;12.10;2.88;;;;;;;;;;5053414;28;20454;-70
2022/01/31 08:46:32;;;;;;;11.00;3.63;;;;;;;;;;5038872;28;20105;-67
2022/01/31 08:48:59;;;;;;;10.15;2.80;;;;;;;;;;5051080;28;20032;-67
2022/01/31 08:51:25;;;;;;;6.50;2.22;;;;;;;;;;5040533;28;20034;-69
2022/01/31 08:53:50;;;;;;;13.77;3.13;;;;;;;;;;5037419;28;20032;-64
2022/01/31 08:56:18;;;;;;;8.82;2.83;;;;;;;;;;5035790;28;20033;-64
2022/01/31 08:58:47;;;;;;;9.38;3.80;;;;;;;;;;5042389;28;20033;-68
2022/01/31 09:01:18;;;;;;;9.75;3.25;;;;;;;;;;5040435;28;20041;-69
2022/01/31 09:04:00;;;;;;;;;;;;;;;;;;5051996;28;20029;-73
2022/01/31 09:06:29;;;;;;;7.97;2.72;;;;;;;;;;5043894;28;19913;-66
2022/01/31 09:08:57;;;;;;;6.18;2.10;;;;;;;;;;5039208;28;20104;-73
2022/01/31 09:11:23;;;;;;;11.15;2.78;;;;;;;;;;5040856;28;20355;-65
2022/01/31 09:13:49;;;;;;;7.20;2.90;;;;;;;;;;5052181;28;20036;-65
2022/01/31 09:16:15;;;;;;;8.02;3.60;;;;;;;;;;5049798;28;20046;-67
2022/01/31 09:18:40;;;;;;;6.00;2.42;;;;;;;;;;5031807;28;20490;-70
2022/01/31 09:21:06;;;;;;;8.23;2.50;;;;;;;;;;5033845;28;20490;-68
2022/01/31 09:23:32;;;;;;;4.35;1.80;;;;;;;;;;5049866;28;20474;-68
2022/01/31 09:25:58;;;;;;;6.68;1.80;;;;;;;;;;5049163;28;20044;-68
2022/01/31 09:28:24;;;;;;;4.18;2.08;;;;;;;;;;5051009;28;20037;-68
2022/01/31 09:30:52;;;;;;;7.45;1.95;;;;;;;;;;5042321;28;20032;-73
2022/01/31 09:33:18;;;;;;;8.80;1.90;;;;;;;;;;5052743;28;20033;-65
2022/01/31 09:35:44;;;;;;;4.75;1.70;;;;;;;;;;5041873;28;20034;-72
2022/01/31 09:38:12;;;;;;;7.05;1.83;;;;;;;;;;5031181;28;20029;-64
2022/01/31 09:40:38;;;;;;;14.45;1.52;;;;;;;;;;5047908;28;20467;-69
2022/01/31 09:51:19;;;;;;;4.28;1.63;;;;;;;;;;5052325;28;20192;-64
2022/01/31 09:53:50;;;;;;;4.65;2.13;;;;;;;;;;5047527;28;20029;-66
2022/01/31 09:56:21;;;;;;;3.17;1.13;;;;;;;;;;5039530;28;20036;-68
2022/01/31 09:58:47;;;;;;;6.75;1.92;;;;;;;;;;5033519;28;20096;-68
2022/01/31 10:01:18;;;;;;;7.93;1.80;;;;;;;;;;5033214;28;20463;-67
2022/01/31 10:04:02;;;;;;;5.68;1.30;;;;;;;;;;5047496;28;20375;-66
2022/01/31 10:06:38;;;;;;;6.15;1.50;;;;;;;;;;5032491;28;20044;-67
2022/01/31 10:09:08;;;;;;;10.95;1.80;;;;;;;;;;5042091;28;20061;-66
2022/01/31 10:11:47;;;;;;;2.97;1.23;;;;;;;;;;5042919;28;20117;-75
2022/01/31 10:17:06;;;;;;;3.03;1.65;;;;;;;;;;5036400;28;20110;-69
2022/01/31 10:19:39;;;;;;;11.07;2.03;;;;;;;;;;5032262;28;20091;-68
2022/01/31 10:22:08;;;;;;;5.63;1.42;;;;;;;;;;5032177;28;20049;-68
2022/01/31 10:24:35;;;;;;;4.60;1.00;;;;;;;;;;5032900;28;20041;-68
2022/01/31 10:27:10;;;;;;;4.65;1.23;;;;;;;;;;5031664;28;20041;-67
2022/01/31 10:29:36;;;;;;;8.05;1.73;;;;;;;;;;5031679;28;20116;-69
2022/01/31 10:32:08;;;;;;;6.85;1.95;;;;;;;;;;5048185;28;20125;-67
2022/01/31 10:34:52;;;;;;;11.38;2.17;;;;;;;;;;5051007;28;20430;-69
2022/01/31 10:37:21;;;;;;;4.70;1.17;;;;;;;;;;5051906;28;20098;-68
2022/01/31 10:56:52;;;;;;;7.63;1.42;;;;;;;;;;5035282;28;20040;-69
2022/01/31 10:59:19;;;;;;;6.28;1.30;;;;;;;;;;5051375;28;20052;-69
2022/01/31 11:01:51;;;;;;;8.15;1.35;;;;;;;;;;5050155;28;20060;-69
2022/01/31 11:04:16;;;;;;;;;;;;;;;;;;5050415;28;20340;-69
2022/01/31 11:06:44;;;;;;;5.65;1.52;;;;;;;;;;5050108;28;20011;-67
2022/01/31 11:09:18;;;;;;;5.90;1.40;;;;;;;;;;5037202;28;20033;-66
2022/01/31 11:11:46;;;;;;;2.40;0.85;;;;;;;;;;5035956;28;20033;-70
2022/01/31 11:14:13;;;;;;;1.05;0.75;;;;;;;;;;5033816;28;20029;-69
2022/01/31 11:16:42;;;;;;;3.53;1.08;;;;;;;;;;5050755;28;20049;-69
2022/01/31 11:19:09;;;;;;;3.03;0.70;;;;;;;;;;5049773;28;20029;-71
2022/01/31 11:21:38;;;;;;;1.88;0.57;;;;;;;;;;5051226;28;20041;-72
2022/01/31 11:24:11;;;;;;;1.13;0.82;;;;;;;;;;5040824;28;20037;-67
2022/01/31 11:26:41;;;;;;;5.05;1.10;;;;;;;;;;5051164;28;20037;-67
2022/01/31 11:29:08;;;;;;;7.18;1.80;;;;;;;;;;5051544;28;20041;-66
2022/01/31 11:31:38;;;;;;;3.05;0.93;;;;;;;;;;5051791;28;20036;-69
2022/01/31 11:34:05;;;;;;;4.72;1.70;;;;;;;;;;5047008;28;20036;-67
2022/01/31 11:36:36;;;;;;;4.57;1.15;;;;;;;;;;5040747;28;20056;-66
2022/01/31 11:39:11;;;;;;;4.10;0.98;;;;;;;;;;5041974;28;20570;-71
2022/01/31 11:41:43;;;;;;;3.78;1.13;;;;;;;;;;5037515;28;20041;-71
2022/01/31 11:44:43;;;;;;;4.97;1.45;;;;;;;;;;5036684;28;20134;-66
2022/01/31 11:47:09;;;;;;;4.38;1.05;;;;;;;;;;5007878;28;20049;-68
2022/01/31 11:50:05;;;;;;;4.22;0.80;;;;;;;;;;5034830;28;20387;-68
2022/01/31 11:52:33;;;;;;;3.13;0.90;;;;;;;;;;5039823;28;20045;-68
2022/01/31 11:55:02;;;;;;;6.53;1.05;;;;;;;;;;5036320;28;20120;-68
2022/01/31 11:57:33;;;;;;;6.90;1.20;;;;;;;;;;5034761;28;20403;-69
2022/01/31 12:00:08;;;;;;;5.20;1.10;;;;;;;;;;5033495;28;20574;-69
2022/01/31 12:02:50;;;;;;;2.60;0.93;;;;;;;;;;5038324;28;20479;-68
2022/01/31 12:05:19;;;;;;;2.75;0.98;;;;;;;;;;5035019;28;20037;-69
2022/01/31 12:07:46;;;;;;;2.50;0.88;;;;;;;;;;5034485;28;20037;-66
2022/01/31 12:10:22;;;;;;;4.57;1.20;;;;;;;;;;5037727;28;20029;-65
2022/01/31 12:13:00;;;;;;;5.28;1.35;;;;;;;;;;5053871;28;20075;-64
2022/01/31 12:23:50;;;;;;;7.88;1.45;;;;;;;;;;5036304;28;20074;-67
2022/01/31 12:26:32;;;;;;;6.57;1.40;;;;;;;;;;5040168;28;20112;-64
2022/01/31 12:29:08;;;;;;;6.00;1.58;;;;;;;;;;5050376;28;20037;-64
2022/01/31 12:31:33;;;;;;;7.85;1.77;;;;;;;;;;5038512;28;20033;-64
2022/01/31 12:34:00;;;;;;;7.75;1.90;;;;;;;;;;5033041;28;20025;-64
2022/01/31 12:36:31;;;;;;;6.78;1.92;;;;;;;;;;5036104;28;20037;-66
2022/01/31 12:38:57;;;;;;;7.53;1.90;;;;;;;;;;5037685;28;20030;-67
2022/01/31 12:41:33;;;;;;;9.32;2.35;;;;;;;;;;5013873;28;20033;-67
2022/01/31 12:44:42;;;;;;;7.63;1.67;;;;;;;;;;5023586;28;20060;-67
2022/01/31 12:47:11;;;;;;;6.60;2.10;;;;;;;;;;5027555;28;20049;-65
2022/01/31 12:49:37;;;;;;;6.57;1.60;;;;;;;;;;5044326;28;20036;-66
2022/01/31 12:52:05;;;;;;;6.93;2.00;;;;;;;;;;5045387;28;20029;-68
2022/01/31 12:54:32;;;;;;;10.13;2.10;;;;;;;;;;5035364;28;20479;-67
2022/01/31 12:57:03;;;;;;;8.60;1.95;;;;;;;;;;5032315;28;20037;-68
2022/01/31 12:59:29;;;;;;;3.80;1.40;;;;;;;;;;5032321;28;20043;-66
2022/01/31 13:01:55;;;;;;;9.50;1.85;;;;;;;;;;5046390;28;20037;-66
2022/01/31 13:04:23;;;;;;;5.10;1.70;;;;;;;;;;5053172;28;20036;-66
2022/01/31 13:06:52;;;;;;;8.02;1.60;;;;;;;;;;5048785;28;20032;-68
2022/01/31 13:09:31;;;;;;;7.63;1.38;;;;;;;;;;5053334;28;20029;-68
2022/01/31 13:12:04;;;;;;;4.93;1.17;;;;;;;;;;5046137;28;20032;-67
2022/01/31 13:14:34;;;;;;;4.72;1.30;;;;;;;;;;5053441;28;20144;-66
2022/01/31 13:19:34;;;;;;;6.57;1.50;;;;;;;;;;5034613;28;20387;-66
2022/01/31 13:22:06;;;;;;;5.00;1.50;;;;;;;;;;5044307;28;20040;-67
2022/01/31 13:24:35;;;;;;;7.65;1.65;;;;;;;;;;5052871;28;20033;-67
2022/01/31 13:27:02;;;;;;;5.68;1.60;;;;;;;;;;5044071;28;21232;-66
2022/01/31 13:29:34;;;;;;;6.10;1.42;;;;;;;;;;5032506;28;20033;-65
2022/01/31 13:32:13;;;;;;;4.30;1.45;;;;;;;;;;5044114;28;20044;-66
2022/01/31 13:34:43;;;;;;;9.20;1.85;;;;;;;;;;5031544;28;20030;-66
2022/01/31 13:37:27;;;;;;;6.45;1.60;;;;;;;;;;5037805;28;20045;-67
2022/01/31 13:39:54;;;;;;;6.28;1.15;;;;;;;;;;5031895;28;20033;-65
2022/01/31 13:42:26;;;;;;;2.60;1.20;;;;;;;;;;5028226;28;20505;-68
2022/01/31 13:44:54;;;;;;;8.90;1.83;;;;;;;;;;5050553;28;20082;-66
2022/01/31 13:48:12;;;;;;;5.47;1.60;;;;;;;;;;5044858;28;20033;-65
2022/01/31 13:50:46;;;;;;;5.32;1.20;;;;;;;;;;5032668;28;20483;-65
2022/01/31 13:53:19;;;;;;;3.47;1.50;;;;;;;;;;5032037;28;20033;-65
2022/01/31 13:55:49;;;;;;;3.22;1.58;;;;;;;;;;5035992;28;20095;-67
2022/01/31 13:58:32;;;;;;;5.63;1.38;;;;;;;;;;5033367;28;20033;-67
2022/01/31 14:00:58;;;;;;;6.07;1.80;;;;;;;;;;5011826;28;20079;-65
2022/01/31 14:03:24;;;;;;;9.63;2.13;;;;;;;;;;5032274;28;20429;-67
2022/01/31 14:05:58;;;;;;;9.18;1.88;;;;;;;;;;5030382;28;20033;-66
2022/01/31 14:08:36;;;;;;;6.30;1.80;;;;;;;;;;5034992;28;20040;-64
2022/01/31 14:11:08;;;;;;;8.07;2.30;;;;;;;;;;5048709;28;20194;-66
2022/01/31 14:13:40;;;;;;;7.45;1.95;;;;;;;;;;5051371;28;20036;-63
2022/01/31 14:16:10;;;;;;;10.15;1.95;;;;;;;;;;5026558;28;20066;-66
2022/01/31 14:18:37;;;;;;;9.07;2.00;;;;;;;;;;5019406;28;20112;-65
2022/01/31 14:21:05;;;;;;;8.85;2.20;;;;;;;;;;5031102;28;20117;-64
2022/01/31 14:23:41;;;;;;;7.93;1.88;;;;;;;;;;5046377;28;20088;-66
2022/01/31 14:26:09;;;;;;;9.07;1.83;;;;;;;;;;5040580;28;20482;-66
2022/01/31 14:28:38;;;;;;;8.45;2.03;;;;;;;;;;5050907;28;20485;-66
2022/01/31 14:31:04;;;;;;;8.50;1.58;;;;;;;;;;5043313;28;20032;-65
2022/01/31 14:33:31;;;;;;;5.53;1.85;;;;;;;;;;5031011;28;20036;-64
2022/01/31 14:36:01;;;;;;;4.25;1.67;;;;;;;;;;5044440;28;20037;-66
2022/01/31 14:38:33;;;;;;;7.50;2.00;;;;;;;;;;5029862;28;20029;-66
2022/01/31 14:49:10;;;;;;;8.48;2.10;;;;;;;;;;5048543;28;20043;-66
2022/01/31 14:51:38;;;;;;;7.05;1.75;;;;;;;;;;5038761;28;20032;-65
2022/01/31 14:54:06;;;;;;;8.15;1.83;;;;;;;;;;5050082;28;20482;-66
2022/01/31 14:56:33;;;;;;;13.50;2.42;;;;;;;;;;5044095;28;20423;-68
2022/01/31 14:59:00;;;;;;;10.52;2.20;;;;;;;;;;5030130;28;20034;-67
2022/01/31 15:01:26;;;;;;;14.20;2.40;;;;;;;;;;5045811;28;20522;-67
2022/01/31 15:03:51;;;;;;;14.43;2.25;;;;;;;;;;5048495;28;20113;-66
2022/01/31 15:06:17;;;;;;;16.27;3.00;;;;;;;;;;5047790;28;20056;-64
2022/01/31 15:08:43;;;;;;;24.73;3.75;;;;;;;;;;5030749;28;20038;-66
2022/01/31 15:11:11;;;;;;;11.55;2.33;;;;;;;;;;5032806;28;20037;-66
2022/01/31 15:13:38;;;;;;;18.77;2.60;;;;;;;;;;5033562;28;20463;-66
2022/01/31 15:16:06;;;;;;;14.67;2.27;;;;;;;;;;4989013;28;1167308;-66
2022/01/31 15:18:37;;;;;;;18.70;2.92;;;;;;;;;;5047904;28;20045;-68
2022/01/31 15:21:05;;;;;;;19.63;3.10;;;;;;;;;;5049496;28;20130;-68
2022/01/31 15:23:38;;;;;;;8.93;2.00;;;;;;;;;;5030013;28;20069;-68
2022/01/31 15:26:13;;;;;;;13.40;2.30;;;;;;;;;;5031651;28;20056;-69
2022/01/31 15:28:40;;;;;;;13.10;2.50;;;;;;;;;;5030040;28;20122;-67
2022/01/31 15:31:07;;;;;;;10.07;1.95;;;;;;;;;;5030835;28;20420;-65
2022/01/31 15:33:33;;;;;;;8.23;1.55;;;;;;;;;;5030414;28;20383;-66
2022/01/31 15:36:00;;;;;;;13.02;2.10;;;;;;;;;;5038412;28;20429;-63